createdAt,value
2022-11-12T00:01:13.915Z,103299.02
2022-11-12T00:03:42.240Z,103299.84
2022-11-12T00:06:09.962Z,103294.12
2022-11-12T00:08:37.945Z,103298.63
2022-11-12T00:11:06.094Z,103302.75
2022-11-12T00:13:33.762Z,103310.50
2022-11-12T00:16:01.373Z,103308.02
2022-11-12T00:18:29.301Z,103304.75
2022-11-12T00:20:57.245Z,103295.79
2022-11-12T00:23:24.914Z,103295.33
2022-11-12T00:26:02.989Z,103289.61
2022-11-12T00:28:36.352Z,103294.52
2022-11-12T00:31:10.545Z,103294.52
2022-11-12T00:33:42.325Z,103291.70
2022-11-12T00:36:10.851Z,103288.43
2022-11-12T00:38:38.513Z,103285.20
2022-11-12T00:41:06.370Z,103290.09
2022-11-12T00:43:34.046Z,103293.34
2022-11-12T00:46:01.678Z,103292.95
2022-11-12T00:48:29.478Z,103285.62
2022-11-12T00:51:10.145Z,103291.34
2022-11-12T00:53:37.815Z,103285.20
2022-11-12T00:56:07.686Z,103284.80
2022-11-12T00:58:37.205Z,103284.37
2022-11-12T01:01:15.669Z,103281.07
2022-11-12T01:03:43.968Z,103278.65
2022-11-12T01:06:19.892Z,103283.07
2022-11-12T01:08:49.426Z,103284.31
2022-11-12T01:11:26.494Z,103275.74
2022-11-12T01:14:00.528Z,103276.59
2022-11-12T01:16:32.218Z,103275.74
2022-11-12T01:19:01.635Z,103273.26
2022-11-12T01:21:31.534Z,103276.10
2022-11-12T01:24:00.737Z,103274.53
2022-11-12T01:26:32.051Z,103278.59
2022-11-12T01:28:59.911Z,103272.87
2022-11-12T01:31:30.162Z,103268.77
2022-11-12T01:34:00.487Z,103270.41
2022-11-12T01:36:29.802Z,103270.87
2022-11-12T01:38:57.598Z,103266.78
2022-11-12T01:41:36.096Z,103259.85
2022-11-12T01:44:17.378Z,103251.77
2022-11-12T01:47:03.616Z,103255.01
2022-11-12T01:49:57.503Z,103247.29
2022-11-12T01:52:30.976Z,103240.36
2022-11-12T01:55:08.753Z,103243.63
2022-11-12T01:57:42.643Z,103246.93
2022-11-12T02:00:13.556Z,103239.61
2022-11-12T02:02:43.599Z,103238.79
2022-11-12T02:05:13.120Z,103252.23
2022-11-12T02:07:43.276Z,103256.71
2022-11-12T02:10:11.380Z,103253.48
2022-11-12T02:12:58.570Z,103252.66
2022-11-12T02:15:27.412Z,103250.66
2022-11-12T02:17:55.152Z,103246.61
2022-11-12T02:20:22.929Z,103249.45
2022-11-12T02:22:50.621Z,103247.42
2022-11-12T02:25:22.029Z,103241.34
2022-11-12T02:27:52.968Z,103244.58
2022-11-12T02:30:21.301Z,103245.37
2022-11-12T02:32:48.927Z,103244.58
2022-11-12T02:35:16.624Z,103243.37
2022-11-12T02:37:44.248Z,103247.81
2022-11-12T02:40:12.063Z,103235.20
2022-11-12T02:42:39.629Z,103243.34
2022-11-12T02:45:07.587Z,103240.88
2022-11-12T02:47:35.261Z,103235.55
2022-11-12T02:50:02.943Z,103240.85
2022-11-12T02:52:30.551Z,103239.61
2022-11-12T02:54:58.237Z,103250.20
2022-11-12T02:57:25.942Z,103239.18
2022-11-12T02:59:53.521Z,103242.42
2022-11-12T03:02:21.147Z,103233.88
2022-11-12T03:04:49.673Z,103231.43
2022-11-12T03:07:17.702Z,103228.20
2022-11-12T03:09:45.347Z,103231.04
2022-11-12T03:12:13.022Z,103226.53
2022-11-12T03:14:40.613Z,103221.23
2022-11-12T03:17:08.277Z,103225.32
2022-11-12T03:19:35.967Z,103231.83
2022-11-12T03:22:03.575Z,103231.04
2022-11-12T03:24:31.176Z,103232.71
2022-11-12T03:26:59.744Z,103227.41
2022-11-12T03:29:28.012Z,103225.74
2022-11-12T03:31:55.638Z,103220.48
2022-11-12T03:34:23.240Z,103224.56
2022-11-12T03:36:50.973Z,103223.75
2022-11-12T03:39:18.620Z,103220.12
2022-11-12T03:41:46.281Z,103221.36
2022-11-12T03:44:13.924Z,103219.30
2022-11-12T03:46:44.160Z,103219.70
2022-11-12T03:49:12.317Z,103218.88
2022-11-12T03:51:39.935Z,103225.84
2022-11-12T03:54:07.733Z,103225.09
2022-11-12T03:56:35.385Z,103218.55
2022-11-12T03:59:03.162Z,103227.58
2022-11-12T04:01:30.808Z,103227.15
2022-11-12T04:03:58.795Z,103234.90
2022-11-12T04:06:45.083Z,103234.51
2022-11-12T04:09:12.920Z,103245.10
2022-11-12T04:11:40.574Z,103248.34
2022-11-12T04:14:08.247Z,103241.41
2022-11-12T04:16:54.407Z,103242.65
2022-11-12T04:19:40.513Z,103230.84
2022-11-12T04:22:10.807Z,103234.51
2022-11-12T04:24:59.755Z,103214.92
2022-11-12T04:27:35.269Z,103203.87
2022-11-12T04:30:32.182Z,103202.63
2022-11-12T04:32:59.856Z,103208.31
2022-11-12T04:35:28.506Z,103208.31
2022-11-12T04:37:56.396Z,103203.41
2022-11-12T04:40:44.872Z,103202.98
2022-11-12T04:43:36.953Z,103201.38
2022-11-12T04:46:06.294Z,103196.84
2022-11-12T04:48:34.357Z,103191.54
2022-11-12T04:51:04.043Z,103190.69
2022-11-12T04:53:31.948Z,103189.48
2022-11-12T04:56:00.695Z,103189.12
2022-11-12T04:58:28.674Z,103189.12
2022-11-12T05:00:56.567Z,103190.33
2022-11-12T05:03:24.238Z,103188.27
2022-11-12T05:05:51.901Z,103197.26
2022-11-12T05:08:19.516Z,103196.02
2022-11-12T05:10:47.119Z,103200.53
2022-11-12T05:13:14.751Z,103203.41
2022-11-12T05:15:46.384Z,103203.80
2022-11-12T05:18:14.020Z,103196.90
2022-11-12T05:20:41.690Z,103192.75
2022-11-12T05:23:09.353Z,103196.45
2022-11-12T05:25:37.402Z,103205.83
2022-11-12T05:28:07.011Z,103198.05
2022-11-12T05:30:35.073Z,103200.89
2022-11-12T05:33:02.690Z,103201.68
2022-11-12T05:35:30.283Z,103207.37
2022-11-12T05:37:57.903Z,103205.34
2022-11-12T05:40:25.517Z,103203.64
2022-11-12T05:42:53.180Z,103207.70
2022-11-12T05:45:20.814Z,103206.45
2022-11-12T05:47:49.064Z,103206.84
2022-11-12T05:50:16.749Z,103206.84
2022-11-12T05:52:44.434Z,103206.91
2022-11-12T05:55:12.102Z,103211.81
2022-11-12T05:57:39.728Z,103200.37
2022-11-12T06:00:08.172Z,103209.33
2022-11-12T06:02:35.840Z,103209.33
2022-11-12T06:05:03.500Z,103210.18
2022-11-12T06:07:31.179Z,103208.94
2022-11-12T06:09:58.799Z,103211.42
2022-11-12T06:12:26.398Z,103216.36
2022-11-12T06:14:54.007Z,103211.91
2022-11-12T06:17:22.549Z,103211.48
2022-11-12T06:19:50.188Z,103206.22
2022-11-12T06:22:17.776Z,103205.01
2022-11-12T06:24:45.421Z,103209.49
2022-11-12T06:27:13.060Z,103215.21
2022-11-12T06:29:40.744Z,103225.84
2022-11-12T06:32:08.345Z,103240.10
2022-11-12T06:34:35.965Z,103229.11
2022-11-12T06:37:03.576Z,103216.09
2022-11-12T06:39:31.231Z,103227.58
2022-11-12T06:41:58.921Z,103232.45
2022-11-12T06:44:26.659Z,103225.12
2022-11-12T06:46:54.318Z,103232.45
2022-11-12T06:49:21.966Z,103238.17
2022-11-12T06:51:51.647Z,103224.30
2022-11-12T06:54:19.318Z,103226.73
2022-11-12T06:56:46.940Z,103236.53
2022-11-12T06:59:14.650Z,103234.90
2022-11-12T07:01:42.355Z,103232.45
2022-11-12T07:04:11.721Z,103240.59
2022-11-12T07:06:39.489Z,103231.59
2022-11-12T07:09:07.411Z,103227.12
2022-11-12T07:11:35.223Z,103224.70
2022-11-12T07:14:02.915Z,103224.27
2022-11-12T07:16:30.490Z,103218.16
2022-11-12T07:18:58.110Z,103220.15
2022-11-12T07:21:26.061Z,103217.70
2022-11-12T07:23:53.989Z,103220.97
2022-11-12T07:26:23.868Z,103216.42
2022-11-12T07:28:53.582Z,103221.72
2022-11-12T07:31:21.894Z,103215.15
2022-11-12T07:33:50.628Z,103217.57
2022-11-12T07:36:20.518Z,103212.70
2022-11-12T07:38:48.862Z,103207.43
2022-11-12T07:41:19.483Z,103208.25
2022-11-12T07:43:49.323Z,103210.24
2022-11-12T07:46:25.253Z,103213.88
2022-11-12T07:48:54.250Z,103221.59
2022-11-12T07:51:27.977Z,103226.46
2022-11-12T07:53:59.502Z,103220.74
2022-11-12T07:56:29.736Z,103227.18
2022-11-12T07:58:57.455Z,103226.89
2022-11-12T08:01:41.765Z,103226.46
2022-11-12T08:04:11.547Z,103220.74
2022-11-12T08:06:39.970Z,103225.55
2022-11-12T08:09:09.607Z,103224.63
2022-11-12T08:11:37.301Z,103222.18
2022-11-12T08:14:04.946Z,103228.23
2022-11-12T08:16:32.594Z,103230.19
2022-11-12T08:19:00.393Z,103229.30
2022-11-12T08:21:28.121Z,103218.12
2022-11-12T08:23:55.767Z,103235.65
2022-11-12T08:26:23.593Z,103227.45
2022-11-12T08:28:51.267Z,103232.71
2022-11-12T08:31:22.161Z,103237.05
2022-11-12T08:33:50.254Z,103234.87
2022-11-12T08:36:19.343Z,103240.16
2022-11-12T08:38:47.297Z,103232.80
2022-11-12T08:41:16.675Z,103237.74
2022-11-12T08:43:44.486Z,103225.91
2022-11-12T08:46:12.144Z,103226.34
2022-11-12T08:48:41.222Z,103235.81
2022-11-12T08:51:09.338Z,103239.22
2022-11-12T08:53:37.246Z,103231.73
2022-11-12T08:56:05.173Z,103237.91
2022-11-12T08:58:32.824Z,103233.88
2022-11-12T09:01:08.936Z,103234.57
2022-11-12T09:03:36.588Z,103240.30
2022-11-12T09:06:05.986Z,103244.88
2022-11-12T09:08:36.339Z,103236.30
2022-11-12T09:11:04.914Z,103232.22
2022-11-12T09:13:32.977Z,103238.43
2022-11-12T09:16:02.779Z,103236.41
2022-11-12T09:18:31.023Z,103237.25
2022-11-12T09:21:05.854Z,103237.35
2022-11-12T09:23:35.841Z,103240.72
2022-11-12T09:26:04.692Z,103246.48
2022-11-12T09:28:32.743Z,103238.79
2022-11-12T09:31:00.750Z,103233.95
2022-11-12T09:33:32.406Z,103242.12
2022-11-12T09:36:04.627Z,103240.06
2022-11-12T09:38:32.939Z,103243.37
2022-11-12T09:41:12.174Z,103251.55
2022-11-12T09:43:53.249Z,103235.23
2022-11-12T09:46:32.356Z,103239.31
2022-11-12T09:49:23.055Z,103243.40
2022-11-12T09:52:02.525Z,103250.34
2022-11-12T09:54:33.780Z,103249.91
2022-11-12T09:57:02.148Z,103245.00
2022-11-12T09:59:35.642Z,103244.61
2022-11-12T10:02:46.679Z,103245.04
2022-11-12T10:05:17.215Z,103237.71
2022-11-12T10:07:58.532Z,103231.20
2022-11-12T10:10:56.748Z,103245.49
2022-11-12T10:13:59.682Z,103226.30
2022-11-12T10:16:45.769Z,103217.73
2022-11-12T10:19:13.336Z,103220.97
2022-11-12T10:22:19.453Z,103217.73
2022-11-12T10:24:49.480Z,103213.19
2022-11-12T10:27:22.937Z,103225.02
2022-11-12T10:30:00.528Z,103224.93
2022-11-12T10:32:28.715Z,103209.79
2022-11-12T10:34:56.376Z,103193.77
2022-11-12T10:37:42.582Z,103197.06
2022-11-12T10:40:40.985Z,103200.70
2022-11-12T10:43:17.648Z,103195.82
2022-11-12T10:45:47.114Z,103200.66
2022-11-12T10:48:41.125Z,103192.48
2022-11-12T10:51:23.055Z,103190.43
2022-11-12T10:53:50.689Z,103187.45
2022-11-12T10:56:30.824Z,103176.46
2022-11-12T10:59:16.655Z,103181.44
2022-11-12T11:01:46.488Z,103178.16
2022-11-12T11:04:30.284Z,103181.40
2022-11-12T11:07:08.395Z,103172.37
2022-11-12T11:09:36.051Z,103162.11
2022-11-12T11:12:03.799Z,103165.74
2022-11-12T11:14:34.145Z,103162.50
2022-11-12T11:17:09.615Z,103154.78
2022-11-12T11:19:40.281Z,103163.32
2022-11-12T11:22:20.286Z,103159.55
2022-11-12T11:25:15.793Z,103165.58
2022-11-12T11:28:11.085Z,103157.66
2022-11-12T11:30:49.917Z,103157.17
2022-11-12T11:33:36.057Z,103148.67
2022-11-12T11:36:23.175Z,103148.67
2022-11-12T11:39:05.604Z,103136.90
2022-11-12T11:41:35.895Z,103134.97
2022-11-12T11:44:34.639Z,103143.08
2022-11-12T11:47:38.576Z,103136.57
2022-11-12T11:50:34.349Z,103140.69
2022-11-12T11:53:44.733Z,103137.75
2022-11-12T11:56:28.226Z,103132.74
2022-11-12T11:59:47.674Z,103133.17
2022-11-12T12:02:44.595Z,103120.84
2022-11-12T12:05:24.243Z,103120.45
2022-11-12T12:08:18.375Z,103115.58
2022-11-12T12:11:13.820Z,103110.31
2022-11-12T12:14:07.413Z,103106.62
2022-11-12T12:16:47.288Z,103099.23
2022-11-12T12:19:36.201Z,103109.49
2022-11-12T12:22:06.840Z,103105.05
2022-11-12T12:24:46.167Z,103105.63
2022-11-12T12:27:21.265Z,103091.34
2022-11-12T12:29:54.828Z,103095.04
2022-11-12T12:32:28.901Z,103095.89
2022-11-12T12:35:38.005Z,103099.95
2022-11-12T12:38:15.531Z,103093.38
2022-11-12T12:41:00.041Z,103077.87
2022-11-12T12:43:40.559Z,103091.87
2022-11-12T12:46:12.116Z,103080.85
2022-11-12T12:48:43.947Z,103077.19
2022-11-12T12:51:11.982Z,103069.01
2022-11-12T12:53:39.857Z,103074.73
2022-11-12T12:56:28.795Z,103069.80
2022-11-12T12:58:56.540Z,103068.59
2022-11-12T13:01:24.154Z,103067.41
2022-11-12T13:03:54.988Z,103061.36
2022-11-12T13:06:23.007Z,103061.39
2022-11-12T13:08:58.241Z,103054.88
2022-11-12T13:12:02.575Z,103054.43
2022-11-12T13:14:35.847Z,103050.37
2022-11-12T13:17:04.873Z,103048.21
2022-11-12T13:19:36.344Z,103053.87
2022-11-12T13:22:19.339Z,103047.63
2022-11-12T13:25:25.994Z,103042.66
2022-11-12T13:27:53.560Z,103037.72
2022-11-12T13:30:23.934Z,103034.80
2022-11-12T13:32:51.652Z,103042.63
2022-11-12T13:35:25.055Z,103031.11
2022-11-12T13:38:13.862Z,103038.83
2022-11-12T13:40:47.957Z,103036.73
2022-11-12T13:43:40.117Z,103030.49
2022-11-12T13:46:07.709Z,103036.51
2022-11-12T13:48:40.819Z,103031.18
2022-11-12T13:51:14.322Z,103031.90
2022-11-12T13:53:41.998Z,103032.26
2022-11-12T13:56:12.584Z,103031.47
2022-11-12T13:58:40.953Z,103032.62
2022-11-12T14:01:09.076Z,103039.98
2022-11-12T14:03:42.939Z,103033.86
2022-11-12T14:06:30.584Z,103031.93
2022-11-12T14:09:04.282Z,103019.34
2022-11-12T14:12:05.731Z,103028.82
2022-11-12T14:14:46.437Z,103019.87
2022-11-12T14:17:32.721Z,103028.50
2022-11-12T14:20:28.636Z,103027.62
2022-11-12T14:22:56.391Z,103030.88
2022-11-12T14:25:28.759Z,103033.40
2022-11-12T14:27:57.463Z,103030.16
2022-11-12T14:30:26.424Z,103029.41
2022-11-12T14:32:59.640Z,103025.72
2022-11-12T14:35:40.128Z,103023.30
2022-11-12T14:38:10.891Z,103025.81
2022-11-12T14:40:44.463Z,103031.18
2022-11-12T14:43:27.345Z,103028.76
2022-11-12T14:45:56.967Z,103028.37
2022-11-12T14:48:24.992Z,103023.04
2022-11-12T14:51:04.030Z,103024.57
2022-11-12T14:53:36.048Z,103022.22
2022-11-12T14:56:07.977Z,103012.44
2022-11-12T14:58:36.401Z,103009.20
2022-11-12T15:04:20.484Z,103001.78
2022-11-12T15:06:56.172Z,103001.45
2022-11-12T15:09:53.545Z,103001.39
2022-11-12T15:12:27.956Z,102990.83
2022-11-12T15:15:08.408Z,102989.59
2022-11-12T15:17:38.238Z,102984.74
2022-11-12T15:20:23.964Z,102993.73
2022-11-12T15:22:53.349Z,102983.56
2022-11-12T15:25:31.292Z,102984.77
2022-11-12T15:28:23.244Z,102991.38
2022-11-12T15:31:27.439Z,102982.88
2022-11-12T15:33:57.365Z,102989.52
2022-11-12T15:36:25.847Z,102993.28
2022-11-12T15:38:56.646Z,102994.16
2022-11-12T15:41:29.598Z,102994.62
2022-11-12T15:43:58.361Z,103004.79
2022-11-12T15:46:26.004Z,102988.93
2022-11-12T15:48:56.157Z,102965.71
2022-11-12T15:51:23.993Z,102968.55
2022-11-12T15:53:51.926Z,102962.90
2022-11-12T15:56:23.091Z,102962.90
2022-11-12T15:58:50.766Z,102959.30
2022-11-12T16:01:18.627Z,102959.30
2022-11-12T16:03:46.289Z,102958.06
2022-11-12T16:06:14.169Z,102957.66
2022-11-12T16:08:41.832Z,102948.74
2022-11-12T16:11:31.499Z,102956.52
2022-11-12T16:13:59.173Z,102954.07
2022-11-12T16:16:27.514Z,102948.80
2022-11-12T16:18:55.404Z,102950.90
2022-11-12T16:21:24.274Z,102946.42
2022-11-12T16:23:51.865Z,102927.35
2022-11-12T16:26:31.890Z,102925.72
2022-11-12T16:28:59.684Z,102928.63
2022-11-12T16:31:27.597Z,102927.84
2022-11-12T16:33:55.244Z,102926.21
2022-11-12T16:36:22.884Z,102937.27
2022-11-12T16:38:50.506Z,102943.80
2022-11-12T16:41:18.502Z,102940.99
2022-11-12T16:43:46.200Z,102948.38
2022-11-12T16:46:27.181Z,102934.55
2022-11-12T16:48:55.327Z,102930.46
2022-11-12T16:51:24.227Z,102932.16
2022-11-12T16:53:51.965Z,102946.81
2022-11-12T16:56:21.970Z,102952.08
2022-11-12T16:58:50.694Z,102934.55
2022-11-12T17:01:27.161Z,102933.73
2022-11-12T17:03:56.724Z,102937.33
2022-11-12T17:06:33.326Z,102934.48
2022-11-12T17:09:01.129Z,102926.27
2022-11-12T17:11:28.807Z,102931.57
2022-11-12T17:13:56.483Z,102926.63
2022-11-12T17:16:24.171Z,102928.20
2022-11-12T17:18:55.427Z,102922.88
2022-11-12T17:21:23.712Z,102926.87
2022-11-12T17:23:52.065Z,102922.29
2022-11-12T17:26:21.581Z,102916.95
2022-11-12T17:28:54.027Z,102921.86
2022-11-12T17:31:25.666Z,102926.34
2022-11-12T17:33:54.704Z,102917.77
2022-11-12T17:36:25.157Z,102915.29
2022-11-12T17:39:00.230Z,102916.50
2022-11-12T17:41:32.176Z,102916.07
2022-11-12T17:44:01.490Z,102909.11
2022-11-12T17:46:29.829Z,102905.48
2022-11-12T17:48:58.006Z,102900.64
2022-11-12T17:51:28.188Z,102896.16
2022-11-12T17:53:56.228Z,102897.40
2022-11-12T17:56:25.016Z,102904.73
2022-11-12T17:58:53.576Z,102903.12
2022-11-12T18:01:26.512Z,102894.95
2022-11-12T18:03:56.270Z,102892.56
2022-11-12T18:06:29.664Z,102893.34
2022-11-12T18:09:09.239Z,102890.93
2022-11-12T18:11:49.757Z,102887.23
2022-11-12T18:14:17.972Z,102886.35
2022-11-12T18:16:46.193Z,102886.35
2022-11-12T18:19:14.084Z,102883.90
2022-11-12T18:21:42.071Z,102872.95
2022-11-12T18:24:16.103Z,102875.00
2022-11-12T18:26:45.225Z,102876.70
2022-11-12T18:29:13.622Z,102871.41
2022-11-12T18:31:41.744Z,102869.80
2022-11-12T18:34:14.589Z,102863.72
2022-11-12T18:36:42.344Z,102857.57
2022-11-12T18:39:10.181Z,102866.60
2022-11-12T18:41:38.010Z,102864.96
2022-11-12T18:44:05.845Z,102873.43
2022-11-12T18:46:33.455Z,102871.47
2022-11-12T18:49:01.125Z,102864.87
2022-11-12T18:51:28.959Z,102858.39
2022-11-12T18:53:56.647Z,102851.36
2022-11-12T18:56:24.320Z,102837.82
2022-11-12T18:58:52.078Z,102843.94
2022-11-12T19:01:22.558Z,102841.02
2022-11-12T19:03:54.615Z,102837.37
2022-11-12T19:06:23.435Z,102828.34
2022-11-12T19:08:51.897Z,102818.95
2022-11-12T19:11:22.835Z,102820.91
2022-11-12T19:13:54.735Z,102823.40
2022-11-12T19:16:24.281Z,102830.73
2022-11-12T19:18:53.343Z,102828.63
2022-11-12T19:21:26.611Z,102837.20
2022-11-12T19:23:56.000Z,102835.99
2022-11-12T19:26:24.583Z,102834.03
2022-11-12T19:28:52.240Z,102840.60
2022-11-12T19:31:25.620Z,102842.70
2022-11-12T19:33:53.686Z,102838.28
2022-11-12T19:36:24.331Z,102826.57
2022-11-12T19:38:56.753Z,102829.45
2022-11-12T19:41:25.350Z,102824.16
2022-11-12T19:43:53.889Z,102831.55
2022-11-12T19:46:22.028Z,102825.92
2022-11-12T19:48:50.118Z,102821.87
2022-11-12T19:51:17.775Z,102826.77
2022-11-12T19:53:45.650Z,102830.95
2022-11-12T19:56:18.081Z,102832.16
2022-11-12T19:58:47.203Z,102820.82
2022-11-12T20:01:18.269Z,102827.36
2022-11-12T20:03:46.279Z,102827.39
2022-11-12T20:06:20.020Z,102814.84
2022-11-12T20:08:48.257Z,102823.37
2022-11-12T20:11:17.301Z,102818.10
2022-11-12T20:13:44.899Z,102815.72
2022-11-12T20:16:23.831Z,102817.38
2022-11-12T20:18:56.887Z,102807.25
2022-11-12T20:21:25.373Z,102812.22
2022-11-12T20:23:53.183Z,102800.84
2022-11-12T20:26:20.908Z,102806.53
2022-11-12T20:28:48.835Z,102804.50
2022-11-12T20:31:21.731Z,102806.98
2022-11-12T20:33:51.523Z,102802.57
2022-11-12T20:36:21.895Z,102812.35
2022-11-12T20:38:54.529Z,102813.59
2022-11-12T20:41:27.051Z,102808.30
2022-11-12T20:43:56.213Z,102800.58
2022-11-12T20:46:24.409Z,102796.09
2022-11-12T20:48:52.392Z,102794.04
2022-11-12T20:51:24.713Z,102791.16
2022-11-12T20:54:00.407Z,102785.08
2022-11-12T20:56:31.129Z,102784.65
2022-11-12T20:59:00.254Z,102789.16
2022-11-12T21:01:29.808Z,102786.35
2022-11-12T21:03:58.542Z,102779.42
2022-11-12T21:06:27.793Z,102778.21
2022-11-12T21:08:57.991Z,102775.37
2022-11-12T21:11:25.623Z,102774.55
2022-11-12T21:13:53.332Z,102768.46
2022-11-12T21:16:21.089Z,102759.93
2022-11-12T21:18:48.836Z,102760.71
2022-11-12T21:21:20.236Z,102761.17
2022-11-12T21:23:50.927Z,102752.60
2022-11-12T21:26:20.699Z,102755.05
2022-11-12T21:28:54.037Z,102754.30
2022-11-12T21:31:24.127Z,102742.89
2022-11-12T21:34:01.262Z,102743.74
2022-11-12T21:36:29.873Z,102741.68
2022-11-12T21:38:57.658Z,102740.05
2022-11-12T21:41:28.277Z,102740.44
2022-11-12T21:43:56.285Z,102726.97
2022-11-12T21:46:29.403Z,102731.48
2022-11-12T21:48:58.541Z,102728.27
2022-11-12T21:51:28.482Z,102716.90
2022-11-12T21:54:03.908Z,102719.74
2022-11-12T21:56:32.525Z,102725.04
2022-11-12T21:59:05.092Z,102718.92
2022-11-12T22:01:35.194Z,102714.87
2022-11-12T22:04:07.887Z,102724.26
2022-11-12T22:06:39.026Z,102720.63
2022-11-12T22:09:07.407Z,102728.41
2022-11-12T22:11:35.242Z,102726.05
2022-11-12T22:14:03.274Z,102724.84
2022-11-12T22:16:31.054Z,102714.64
2022-11-12T22:19:00.467Z,102715.49
2022-11-12T22:21:39.436Z,102712.19
2022-11-12T22:24:08.249Z,102713.01
2022-11-12T22:26:35.917Z,102705.26
2022-11-12T22:29:03.659Z,102695.97
2022-11-12T22:31:33.527Z,102697.57
2022-11-12T22:34:03.608Z,102688.22
2022-11-12T22:36:32.851Z,102681.32
2022-11-12T22:39:00.542Z,102681.71
2022-11-12T22:41:30.748Z,102677.23
2022-11-12T22:44:01.252Z,102674.38
2022-11-12T22:46:31.591Z,102666.24
2022-11-12T22:49:00.231Z,102665.07
2022-11-12T22:51:30.200Z,102658.56
2022-11-12T22:54:04.066Z,102663.07
2022-11-12T22:56:34.378Z,102663.89
2022-11-12T22:59:06.307Z,102663.43
2022-11-12T23:01:36.273Z,102667.16
2022-11-12T23:04:06.261Z,102663.95
2022-11-12T23:06:34.408Z,102652.22
2022-11-12T23:09:02.717Z,102652.25
2022-11-12T23:11:30.781Z,102657.19
2022-11-12T23:13:58.545Z,102649.89
2022-11-12T23:16:34.228Z,102648.65
2022-11-12T23:19:01.981Z,102645.09
2022-11-12T23:21:30.950Z,102635.31
2022-11-12T23:24:00.073Z,102643.84
2022-11-12T23:26:32.133Z,102640.54
2022-11-12T23:29:00.289Z,102645.48
2022-11-12T23:31:30.286Z,102639.43
2022-11-12T23:34:00.128Z,102632.53
2022-11-12T23:36:28.853Z,102630.90
2022-11-12T23:38:57.915Z,102626.05
2022-11-12T23:41:27.355Z,102624.84
2022-11-12T23:43:56.159Z,102623.99
2022-11-12T23:46:24.625Z,102618.34
2022-11-12T23:48:52.677Z,102612.71
2022-11-12T23:51:22.738Z,102611.87
2022-11-12T23:53:50.853Z,102622.03
2022-11-12T23:56:20.940Z,102614.25
2022-11-12T23:58:48.955Z,102602.12
